NORTHEAST SUFFOLK  -  Special Weather Statement Special Weather Statement        NORTHERN NASSAU  -  Special Weather Statement Special Weather Statement        NORTHWEST SUFFOLK  -  Special Weather Statement Special Weather Statement        SOUTHEAST SUFFOLK  -  Special Weather Statement Special Weather Statement        SOUTHERN NASSAU  -  Special Weather Statement Special Weather Statement        SOUTHWEST SUFFOLK  -  Special Weather Statement Special Weather Statement      

Active alerts

Northern Nassau
  Details for Northern Nassau Special Weather Statement
Southern Nassau
  Details for Southern Nassau Special Weather Statement
Northwest Suffolk
  Details for Northwest Suffolk Special Weather Statement
Southwest Suffolk
  Details for Southwest Suffolk Special Weather Statement
Northeast Suffolk
  Details for Northeast Suffolk Special Weather Statement
Southeast Suffolk
  Details for Southeast Suffolk Special Weather Statement


WXM80 ListenWXM80 Stop

You find our weather info also at:

UK Metoffice

WeatherCloud

Weather Underground

Northeastern Weather Network

AWEKAS

Citizen Weather Observer Program (CWOP)

HAMweather, WeatherForYou, PWS Weather


Weather Underground History page Text

Daily Summary for August 28, 2017 Units:  Both    English   Metric
« Previous Day
Next Day »
Daily Weekly Monthly Yearly Custom
  High: Low: Average:
Temperature: 77.4 °F /  25.2 °C 57.1 °F /  13.9 °C 66.7 °F /  19.3 °C
Dew Point: 62.0 °F /  16.7 °C 51.3 °F /  10.7 °C 56.8 °F /  13.8 °C
Humidity: 97 % 43 % 73 %
Wind Speed: 5.7 mph /  9.2 km/h - 1.1 mph /  1.8 km/h
Wind Gust: 10.4 mph /  16.7 km/h - -
Wind:- - East
Pressure: 30.28 in /  1025.3 hPa 30.19 in /  1022.2 hPa -
Precipitation: 0.00 in /  0 mm    
Historical Graphs
 
 
Tabular Data for August 28, 2017
Time Temperature Dew Point Pressure Wind Wind Speed Wind Gust Humidity Rainfall Rate (Hourly)
00:01 62.1 °F /  16.7 °C 55.2 °F /  12.9 °C 30.23 in /  1023.6 hPa Calm     78 % 0.00 in /  0 mm
00:06 62.0 °F /  16.7 °C 55.1 °F /  12.8 °C 30.23 in /  1023.6 hPa Calm     78 % 0.00 in /  0 mm
00:11 61.8 °F /  16.6 °C 55.2 °F /  12.9 °C 30.23 in /  1023.6 hPa Calm     79 % 0.00 in /  0 mm
00:16 61.7 °F /  16.5 °C 55.1 °F /  12.8 °C 30.23 in /  1023.6 hPa Calm     79 % 0.00 in /  0 mm
00:21 61.5 °F /  16.4 °C 55.3 °F /  12.9 °C 30.23 in /  1023.6 hPa Calm     80 % 0.00 in /  0 mm
00:26 61.3 °F /  16.3 °C 55.1 °F /  12.8 °C 30.23 in /  1023.6 hPa Calm     80 % 0.00 in /  0 mm
00:31 61.2 °F /  16.2 °C 55.0 °F /  12.8 °C 30.23 in /  1023.6 hPa Calm     80 % 0.00 in /  0 mm
00:36 61.1 °F /  16.2 °C 55.2 °F /  12.9 °C 30.23 in /  1023.6 hPa Calm     81 % 0.00 in /  0 mm
00:41 60.9 °F /  16.1 °C 55.0 °F /  12.8 °C 30.23 in /  1023.6 hPa Calm     81 % 0.00 in /  0 mm
00:46 60.7 °F /  15.9 °C 54.8 °F /  12.7 °C 30.23 in /  1023.6 hPa Calm     81 % 0.00 in /  0 mm
00:51 60.6 °F /  15.9 °C 55.1 °F /  12.8 °C 30.23 in /  1023.6 hPa Calm     82 % 0.00 in /  0 mm
00:56 60.4 °F /  15.8 °C 54.9 °F /  12.7 °C 30.23 in /  1023.6 hPa Calm     82 % 0.00 in /  0 mm
01:01 60.2 °F /  15.7 °C 55.0 °F /  12.8 °C 30.23 in /  1023.6 hPa Calm     83 % 0.00 in /  0 mm
01:06 60.1 °F /  15.6 °C 54.6 °F /  12.6 °C 30.22 in /  1023.2 hPa Calm     82 % 0.00 in /  0 mm
01:11 59.9 °F /  15.5 °C 54.7 °F /  12.6 °C 30.22 in /  1023.2 hPa Calm     83 % 0.00 in /  0 mm
01:16 59.8 °F /  15.4 °C 54.6 °F /  12.6 °C 30.22 in /  1023.2 hPa Calm     83 % 0.00 in /  0 mm
01:21 59.7 °F /  15.4 °C 54.9 °F /  12.7 °C 30.22 in /  1023.2 hPa Calm     84 % 0.00 in /  0 mm
01:26 59.6 °F /  15.3 °C 54.8 °F /  12.7 °C 30.22 in /  1023.2 hPa Calm     84 % 0.00 in /  0 mm
01:32 59.5 °F /  15.3 °C 55.0 °F /  12.8 °C 30.22 in /  1023.2 hPa Calm     85 % 0.00 in /  0 mm
01:37 59.4 °F /  15.2 °C 54.9 °F /  12.7 °C 30.22 in /  1023.2 hPa Calm     85 % 0.00 in /  0 mm
01:42 59.3 °F /  15.2 °C 54.8 °F /  12.7 °C 30.22 in /  1023.2 hPa Calm     85 % 0.00 in /  0 mm
01:47 59.2 °F /  15.1 °C 54.7 °F /  12.6 °C 30.22 in /  1023.2 hPa Calm     85 % 0.00 in /  0 mm
01:52 59.1 °F /  15.1 °C 54.6 °F /  12.6 °C 30.22 in /  1023.2 hPa Calm     85 % 0.00 in /  0 mm
01:57 59.0 °F /  15 °C 54.8 °F /  12.7 °C 30.22 in /  1023.2 hPa Calm     86 % 0.00 in /  0 mm
02:02 59.0 °F /  15 °C 55.1 °F /  12.8 °C 30.22 in /  1023.2 hPa Calm     87 % 0.00 in /  0 mm
02:07 58.9 °F /  14.9 °C 55.0 °F /  12.8 °C 30.22 in /  1023.2 hPa SE 0.1 mph /  0.2 km/h   87 % 0.00 in /  0 mm
02:12 58.9 °F /  14.9 °C 55.0 °F /  12.8 °C 30.22 in /  1023.2 hPa Calm     87 % 0.00 in /  0 mm
02:17 58.8 °F /  14.9 °C 54.9 °F /  12.7 °C 30.21 in /  1022.9 hPa Calm     87 % 0.00 in /  0 mm
02:22 58.8 °F /  14.9 °C 54.9 °F /  12.7 °C 30.21 in /  1022.9 hPa Calm     87 % 0.00 in /  0 mm
02:27 58.7 °F /  14.8 °C 55.2 °F /  12.9 °C 30.20 in /  1022.6 hPa SE 0.5 mph /  0.8 km/h 1.2 mph /  1.9 km/h 88 % 0.00 in /  0 mm
02:32 58.7 °F /  14.8 °C 55.2 °F /  12.9 °C 30.20 in /  1022.6 hPa SE 0.2 mph /  0.3 km/h 1.2 mph /  1.9 km/h 88 % 0.00 in /  0 mm
02:37 58.6 °F /  14.8 °C 55.1 °F /  12.8 °C 30.20 in /  1022.6 hPa SE 0.5 mph /  0.8 km/h 2.3 mph /  3.7 km/h 88 % 0.00 in /  0 mm
02:42 58.6 °F /  14.8 °C 55.4 °F /  13 °C 30.19 in /  1022.2 hPa Calm   1.2 mph /  1.9 km/h 89 % 0.00 in /  0 mm
02:47 58.6 °F /  14.8 °C 55.4 °F /  13 °C 30.20 in /  1022.6 hPa SE 0.7 mph /  1.1 km/h 2.3 mph /  3.7 km/h 89 % 0.00 in /  0 mm
02:52 58.6 °F /  14.8 °C 55.7 °F /  13.2 °C 30.19 in /  1022.2 hPa Calm     90 % 0.00 in /  0 mm
02:57 58.7 °F /  14.8 °C 55.8 °F /  13.2 °C 30.19 in /  1022.2 hPa Calm     90 % 0.00 in /  0 mm
03:02 58.6 °F /  14.8 °C 55.7 °F /  13.2 °C 30.19 in /  1022.2 hPa SE 0.8 mph /  1.3 km/h 1.2 mph /  1.9 km/h 90 % 0.00 in /  0 mm
03:07 58.7 °F /  14.8 °C 56.1 °F /  13.4 °C 30.19 in /  1022.2 hPa SE 0.1 mph /  0.2 km/h 1.2 mph /  1.9 km/h 91 % 0.00 in /  0 mm
03:13 58.7 °F /  14.8 °C 56.1 °F /  13.4 °C 30.19 in /  1022.2 hPa Calm   1.2 mph /  1.9 km/h 91 % 0.00 in /  0 mm
03:18 58.7 °F /  14.8 °C 56.1 °F /  13.4 °C 30.19 in /  1022.2 hPa SE 0.4 mph /  0.6 km/h 1.2 mph /  1.9 km/h 91 % 0.00 in /  0 mm
03:23 58.7 °F /  14.8 °C 56.1 °F /  13.4 °C 30.19 in /  1022.2 hPa Calm     91 % 0.00 in /  0 mm
03:28 58.7 °F /  14.8 °C 56.1 °F /  13.4 °C 30.19 in /  1022.2 hPa Calm   1.2 mph /  1.9 km/h 91 % 0.00 in /  0 mm
03:33 58.7 °F /  14.8 °C 56.1 °F /  13.4 °C 30.19 in /  1022.2 hPa SE 0.5 mph /  0.8 km/h 2.3 mph /  3.7 km/h 91 % 0.00 in /  0 mm
03:38 58.6 °F /  14.8 °C 56.0 °F /  13.3 °C 30.19 in /  1022.2 hPa SE 0.3 mph /  0.5 km/h 2.3 mph /  3.7 km/h 91 % 0.00 in /  0 mm
03:43 58.6 °F /  14.8 °C 56.0 °F /  13.3 °C 30.19 in /  1022.2 hPa Calm   1.2 mph /  1.9 km/h 91 % 0.00 in /  0 mm
03:48 58.6 °F /  14.8 °C 56.0 °F /  13.3 °C 30.19 in /  1022.2 hPa Calm     91 % 0.00 in /  0 mm
03:53 58.6 °F /  14.8 °C 56.0 °F /  13.3 °C 30.19 in /  1022.2 hPa Calm     91 % 0.00 in /  0 mm
03:58 58.5 °F /  14.7 °C 55.9 °F /  13.3 °C 30.20 in /  1022.6 hPa Calm     91 % 0.00 in /  0 mm
04:03 58.5 °F /  14.7 °C 55.9 °F /  13.3 °C 30.20 in /  1022.6 hPa Calm     91 % 0.00 in /  0 mm
04:08 58.5 °F /  14.7 °C 55.9 °F /  13.3 °C 30.20 in /  1022.6 hPa Calm     91 % 0.00 in /  0 mm
04:13 58.4 °F /  14.7 °C 55.8 °F /  13.2 °C 30.20 in /  1022.6 hPa Calm     91 % 0.00 in /  0 mm
04:18 58.4 °F /  14.7 °C 55.8 °F /  13.2 °C 30.20 in /  1022.6 hPa Calm     91 % 0.00 in /  0 mm
04:23 58.4 °F /  14.7 °C 55.8 °F /  13.2 °C 30.20 in /  1022.6 hPa Calm     91 % 0.00 in /  0 mm
04:29 58.4 °F /  14.7 °C 56.1 °F /  13.4 °C 30.20 in /  1022.6 hPa Calm     92 % 0.00 in /  0 mm
04:34 58.4 °F /  14.7 °C 56.1 °F /  13.4 °C 30.20 in /  1022.6 hPa Calm     92 % 0.00 in /  0 mm
04:39 58.3 °F /  14.6 °C 56.0 °F /  13.3 °C 30.20 in /  1022.6 hPa Calm     92 % 0.00 in /  0 mm
04:44 58.3 °F /  14.6 °C 56.0 °F /  13.3 °C 30.20 in /  1022.6 hPa Calm     92 % 0.00 in /  0 mm
04:49 58.3 °F /  14.6 °C 56.0 °F /  13.3 °C 30.21 in /  1022.9 hPa Calm     92 % 0.00 in /  0 mm
04:54 58.2 °F /  14.6 °C 55.9 °F /  13.3 °C 30.21 in /  1022.9 hPa Calm   1.2 mph /  1.9 km/h 92 % 0.00 in /  0 mm
04:59 58.1 °F /  14.5 °C 55.8 °F /  13.2 °C 30.21 in /  1022.9 hPa Calm     92 % 0.00 in /  0 mm
05:04 58.1 °F /  14.5 °C 55.5 °F /  13.1 °C 30.21 in /  1022.9 hPa Calm     91 % 0.00 in /  0 mm
05:09 58.0 °F /  14.4 °C 55.4 °F /  13 °C 30.21 in /  1022.9 hPa Calm     91 % 0.00 in /  0 mm
05:14 58.0 °F /  14.4 °C 55.4 °F /  13 °C 30.22 in /  1023.2 hPa Calm     91 % 0.00 in /  0 mm
05:19 57.9 °F /  14.4 °C 55.3 °F /  12.9 °C 30.22 in /  1023.2 hPa Calm     91 % 0.00 in /  0 mm
05:24 57.8 °F /  14.3 °C 55.2 °F /  12.9 °C 30.22 in /  1023.2 hPa Calm     91 % 0.00 in /  0 mm
05:29 57.7 °F /  14.3 °C 55.1 °F /  12.8 °C 30.22 in /  1023.2 hPa Calm     91 % 0.00 in /  0 mm
05:34 57.6 °F /  14.2 °C 55.0 °F /  12.8 °C 30.22 in /  1023.2 hPa Calm     91 % 0.00 in /  0 mm
05:39 57.5 °F /  14.2 °C 54.9 °F /  12.7 °C 30.21 in /  1022.9 hPa Calm     91 % 0.00 in /  0 mm
05:44 57.5 °F /  14.2 °C 54.9 °F /  12.7 °C 30.21 in /  1022.9 hPa Calm     91 % 0.00 in /  0 mm
05:49 57.4 °F /  14.1 °C 54.8 °F /  12.7 °C 30.21 in /  1022.9 hPa Calm     91 % 0.00 in /  0 mm
05:54 57.3 °F /  14.1 °C 54.7 °F /  12.6 °C 30.22 in /  1023.2 hPa Calm   1.2 mph /  1.9 km/h 91 % 0.00 in /  0 mm
06:00 57.3 °F /  14.1 °C 54.7 °F /  12.6 °C 30.22 in /  1023.2 hPa Calm   1.2 mph /  1.9 km/h 91 % 0.00 in /  0 mm
06:05 57.2 °F /  14 °C 54.6 °F /  12.6 °C 30.22 in /  1023.2 hPa Calm   1.2 mph /  1.9 km/h 91 % 0.00 in /  0 mm
06:10 57.2 °F /  14 °C 54.6 °F /  12.6 °C 30.22 in /  1023.2 hPa Calm   2.3 mph /  3.7 km/h 91 % 0.00 in /  0 mm
06:15 57.1 °F /  13.9 °C 54.8 °F /  12.7 °C 30.22 in /  1023.2 hPa SE 0.4 mph /  0.6 km/h 2.3 mph /  3.7 km/h 92 % 0.00 in /  0 mm
06:20 57.1 °F /  13.9 °C 54.8 °F /  12.7 °C 30.22 in /  1023.2 hPa Calm   1.2 mph /  1.9 km/h 92 % 0.00 in /  0 mm
06:25 57.1 °F /  13.9 °C 54.8 °F /  12.7 °C 30.23 in /  1023.6 hPa Calm   1.2 mph /  1.9 km/h 92 % 0.00 in /  0 mm
06:30 57.1 °F /  13.9 °C 54.8 °F /  12.7 °C 30.23 in /  1023.6 hPa SE 0.3 mph /  0.5 km/h 2.3 mph /  3.7 km/h 92 % 0.00 in /  0 mm
06:35 57.1 °F /  13.9 °C 55.1 °F /  12.8 °C 30.23 in /  1023.6 hPa Calm     93 % 0.00 in /  0 mm
06:38 57.1 °F /  13.9 °C 55.1 °F /  12.8 °C 30.23 in /  1023.6 hPa Calm     93 % 0.00 in /  0 mm
06:43 57.2 °F /  14 °C 55.2 °F /  12.9 °C 30.23 in /  1023.6 hPa Calm     93 % 0.00 in /  0 mm
06:48 57.2 °F /  14 °C 55.5 °F /  13.1 °C 30.23 in /  1023.6 hPa Calm     94 % 0.00 in /  0 mm
06:53 57.3 °F /  14.1 °C 55.6 °F /  13.1 °C 30.23 in /  1023.6 hPa SE 0.7 mph /  1.1 km/h 2.3 mph /  3.7 km/h 94 % 0.00 in /  0 mm
06:58 57.5 °F /  14.2 °C 55.8 °F /  13.2 °C 30.24 in /  1023.9 hPa Calm     94 % 0.00 in /  0 mm
07:03 57.6 °F /  14.2 °C 56.2 °F /  13.4 °C 30.24 in /  1023.9 hPa SE 0.1 mph /  0.2 km/h 1.0 mph /  1.6 km/h 95 % 0.00 in /  0 mm
07:08 57.9 °F /  14.4 °C 56.5 °F /  13.6 °C 30.25 in /  1024.3 hPa Calm     95 % 0.00 in /  0 mm
07:13 58.2 °F /  14.6 °C 56.8 °F /  13.8 °C 30.25 in /  1024.3 hPa Calm     95 % 0.00 in /  0 mm
07:18 58.6 °F /  14.8 °C 57.5 °F /  14.2 °C 30.25 in /  1024.3 hPa NE 0.7 mph /  1.1 km/h 2.3 mph /  3.7 km/h 96 % 0.00 in /  0 mm
07:23 59.3 °F /  15.2 °C 58.2 °F /  14.6 °C 30.25 in /  1024.3 hPa ENE 1.1 mph /  1.8 km/h 3.5 mph /  5.6 km/h 96 % 0.00 in /  0 mm
07:28 59.9 °F /  15.5 °C 58.8 °F /  14.9 °C 30.25 in /  1024.3 hPa NE 2.3 mph /  3.7 km/h 3.5 mph /  5.6 km/h 96 % 0.00 in /  0 mm
07:33 60.4 °F /  15.8 °C 59.5 °F /  15.3 °C 30.26 in /  1024.6 hPa NE 2.1 mph /  3.4 km/h 4.0 mph /  6.4 km/h 97 % 0.00 in /  0 mm
07:38 61.0 °F /  16.1 °C 60.1 °F /  15.6 °C 30.26 in /  1024.6 hPa ENE 1.5 mph /  2.4 km/h 3.5 mph /  5.6 km/h 97 % 0.00 in /  0 mm
07:43 61.4 °F /  16.3 °C 60.5 °F /  15.8 °C 30.26 in /  1024.6 hPa ENE 1.4 mph /  2.3 km/h 4.0 mph /  6.4 km/h 97 % 0.00 in /  0 mm
07:48 61.7 °F /  16.5 °C 60.8 °F /  16 °C 30.26 in /  1024.6 hPa ENE 1.0 mph /  1.6 km/h 2.3 mph /  3.7 km/h 97 % 0.00 in /  0 mm
07:53 62.1 °F /  16.7 °C 61.2 °F /  16.2 °C 30.27 in /  1024.9 hPa ENE 1.3 mph /  2.1 km/h 4.6 mph /  7.4 km/h 97 % 0.00 in /  0 mm
07:58 62.4 °F /  16.9 °C 61.2 °F /  16.2 °C 30.27 in /  1024.9 hPa NE 1.4 mph /  2.3 km/h 6.9 mph /  11.1 km/h 96 % 0.00 in /  0 mm
08:03 62.7 °F /  17.1 °C 61.5 °F /  16.4 °C 30.27 in /  1024.9 hPa ENE 0.2 mph /  0.3 km/h 3.5 mph /  5.6 km/h 96 % 0.00 in /  0 mm
08:08 63.0 °F /  17.2 °C 61.8 °F /  16.6 °C 30.27 in /  1024.9 hPa NE 1.8 mph /  2.9 km/h 3.5 mph /  5.6 km/h 96 % 0.00 in /  0 mm
08:13 63.3 °F /  17.4 °C 61.8 °F /  16.6 °C 30.27 in /  1024.9 hPa NE 1.2 mph /  1.9 km/h 4.6 mph /  7.4 km/h 95 % 0.00 in /  0 mm
08:18 63.7 °F /  17.6 °C 61.9 °F /  16.6 °C 30.28 in /  1025.3 hPa NNE 2.1 mph /  3.4 km/h 8.1 mph /  13 km/h 94 % 0.00 in /  0 mm
08:24 64.0 °F /  17.8 °C 61.9 °F /  16.6 °C 30.28 in /  1025.3 hPa ENE 0.8 mph /  1.3 km/h 3.5 mph /  5.6 km/h 93 % 0.00 in /  0 mm
08:29 64.4 °F /  18 °C 62.0 °F /  16.7 °C 30.28 in /  1025.3 hPa ENE 1.6 mph /  2.6 km/h 5.8 mph /  9.3 km/h 92 % 0.00 in /  0 mm
08:34 64.8 °F /  18.2 °C 61.8 °F /  16.6 °C 30.28 in /  1025.3 hPa ENE 4.2 mph /  6.8 km/h 9.2 mph /  14.8 km/h 90 % 0.00 in /  0 mm
08:39 65.1 °F /  18.4 °C 61.5 °F /  16.4 °C 30.27 in /  1024.9 hPa ENE 3.7 mph /  6 km/h 6.9 mph /  11.1 km/h 88 % 0.00 in /  0 mm
08:44 65.4 °F /  18.6 °C 61.4 °F /  16.3 °C 30.27 in /  1024.9 hPa NE 3.8 mph /  6.1 km/h 6.9 mph /  11.1 km/h 87 % 0.00 in /  0 mm
08:49 65.7 °F /  18.7 °C 61.4 °F /  16.3 °C 30.27 in /  1024.9 hPa ENE 4.1 mph /  6.6 km/h 8.1 mph /  13 km/h 86 % 0.00 in /  0 mm
08:54 66.0 °F /  18.9 °C 61.4 °F /  16.3 °C 30.27 in /  1024.9 hPa NNE 3.8 mph /  6.1 km/h 6.9 mph /  11.1 km/h 85 % 0.00 in /  0 mm
08:59 66.2 °F /  19 °C 61.2 °F /  16.2 °C 30.27 in /  1024.9 hPa NE 4.5 mph /  7.2 km/h 6.9 mph /  11.1 km/h 84 % 0.00 in /  0 mm
09:04 66.4 °F /  19.1 °C 61.1 °F /  16.2 °C 30.28 in /  1025.3 hPa ENE 2.8 mph /  4.5 km/h 4.6 mph /  7.4 km/h 83 % 0.00 in /  0 mm
09:09 66.6 °F /  19.2 °C 61.3 °F /  16.3 °C 30.28 in /  1025.3 hPa ENE 1.1 mph /  1.8 km/h 2.3 mph /  3.7 km/h 83 % 0.00 in /  0 mm
09:14 66.9 °F /  19.4 °C 61.6 °F /  16.4 °C 30.28 in /  1025.3 hPa NE 2.0 mph /  3.2 km/h 4.0 mph /  6.4 km/h 83 % 0.00 in /  0 mm
09:19 67.0 °F /  19.4 °C 61.3 °F /  16.3 °C 30.27 in /  1024.9 hPa ENE 3.8 mph /  6.1 km/h 4.6 mph /  7.4 km/h 82 % 0.00 in /  0 mm
09:24 67.2 °F /  19.6 °C 61.5 °F /  16.4 °C 30.27 in /  1024.9 hPa ENE 3.2 mph /  5.1 km/h 4.6 mph /  7.4 km/h 82 % 0.00 in /  0 mm
09:29 67.3 °F /  19.6 °C 60.9 °F /  16.1 °C 30.27 in /  1024.9 hPa ENE 2.3 mph /  3.7 km/h 4.6 mph /  7.4 km/h 80 % 0.00 in /  0 mm
09:34 67.6 °F /  19.8 °C 61.2 °F /  16.2 °C 30.27 in /  1024.9 hPa ENE 3.0 mph /  4.8 km/h 6.9 mph /  11.1 km/h 80 % 0.00 in /  0 mm
09:39 67.7 °F /  19.8 °C 61.0 °F /  16.1 °C 30.27 in /  1024.9 hPa NE 3.6 mph /  5.8 km/h 6.9 mph /  11.1 km/h 79 % 0.00 in /  0 mm
09:44 68.0 °F /  20 °C 61.6 °F /  16.4 °C 30.27 in /  1024.9 hPa NE 4.5 mph /  7.2 km/h 4.6 mph /  7.4 km/h 80 % 0.00 in /  0 mm
09:49 68.5 °F /  20.3 °C 61.0 °F /  16.1 °C 30.28 in /  1025.3 hPa NE 5.1 mph /  8.2 km/h 7.0 mph /  11.3 km/h 77 % 0.00 in /  0 mm
09:54 69.0 °F /  20.6 °C 61.5 °F /  16.4 °C 30.28 in /  1025.3 hPa ENE 2.9 mph /  4.7 km/h 6.9 mph /  11.1 km/h 77 % 0.00 in /  0 mm
09:59 69.5 °F /  20.8 °C 61.2 °F /  16.2 °C 30.28 in /  1025.3 hPa NE 2.3 mph /  3.7 km/h 8.1 mph /  13 km/h 75 % 0.00 in /  0 mm
10:04 70.1 °F /  21.2 °C 61.4 °F /  16.3 °C 30.28 in /  1025.3 hPa ENE 2.7 mph /  4.3 km/h 5.8 mph /  9.3 km/h 74 % 0.00 in /  0 mm
10:09 70.5 °F /  21.4 °C 61.0 °F /  16.1 °C 30.28 in /  1025.3 hPa NNE 3.3 mph /  5.3 km/h 8.1 mph /  13 km/h 72 % 0.00 in /  0 mm
10:14 70.6 °F /  21.4 °C 60.7 °F /  15.9 °C 30.28 in /  1025.3 hPa NE 2.5 mph /  4 km/h 8.1 mph /  13 km/h 71 % 0.00 in /  0 mm
10:19 70.6 °F /  21.4 °C 60.7 °F /  15.9 °C 30.28 in /  1025.3 hPa NE 2.5 mph /  4 km/h 9.2 mph /  14.8 km/h 71 % 0.00 in /  0 mm
10:24 70.6 °F /  21.4 °C 61.5 °F /  16.4 °C 30.27 in /  1024.9 hPa ENE 2.4 mph /  3.9 km/h 6.9 mph /  11.1 km/h 73 % 0.00 in /  0 mm
10:29 70.7 °F /  21.5 °C 61.2 °F /  16.2 °C 30.27 in /  1024.9 hPa ENE 2.9 mph /  4.7 km/h 4.6 mph /  7.4 km/h 72 % 0.00 in /  0 mm
10:34 70.6 °F /  21.4 °C 60.3 °F /  15.7 °C 30.26 in /  1024.6 hPa ENE 5.6 mph /  9 km/h 9.2 mph /  14.8 km/h 70 % 0.00 in /  0 mm
10:39 70.6 °F /  21.4 °C 60.7 °F /  15.9 °C 30.27 in /  1024.9 hPa NE 2.3 mph /  3.7 km/h 3.5 mph /  5.6 km/h 71 % 0.00 in /  0 mm
10:44 70.6 °F /  21.4 °C 60.7 °F /  15.9 °C 30.27 in /  1024.9 hPa NE 3.2 mph /  5.1 km/h 4.6 mph /  7.4 km/h 71 % 0.00 in /  0 mm
10:49 70.7 °F /  21.5 °C 60.0 °F /  15.6 °C 30.26 in /  1024.6 hPa ENE 1.8 mph /  2.9 km/h 3.5 mph /  5.6 km/h 69 % 0.00 in /  0 mm
10:54 70.9 °F /  21.6 °C 60.2 °F /  15.7 °C 30.26 in /  1024.6 hPa ENE 3.0 mph /  4.8 km/h 3.5 mph /  5.6 km/h 69 % 0.00 in /  0 mm
10:59 71.2 °F /  21.8 °C 59.7 °F /  15.4 °C 30.26 in /  1024.6 hPa ENE 3.5 mph /  5.6 km/h 6.9 mph /  11.1 km/h 67 % 0.00 in /  0 mm
11:04 71.5 °F /  21.9 °C 60.8 °F /  16 °C 30.26 in /  1024.6 hPa ENE 1.7 mph /  2.7 km/h 3.5 mph /  5.6 km/h 69 % 0.00 in /  0 mm
11:10 71.9 °F /  22.2 °C 59.9 °F /  15.5 °C 30.26 in /  1024.6 hPa ENE 2.7 mph /  4.3 km/h 8.1 mph /  13 km/h 66 % 0.00 in /  0 mm
11:15 72.4 °F /  22.4 °C 60.4 °F /  15.8 °C 30.26 in /  1024.6 hPa ENE 3.5 mph /  5.6 km/h 6.9 mph /  11.1 km/h 66 % 0.00 in /  0 mm
11:20 73.1 °F /  22.8 °C 60.2 °F /  15.7 °C 30.27 in /  1024.9 hPa ENE 3.8 mph /  6.1 km/h 6.9 mph /  11.1 km/h 64 % 0.00 in /  0 mm
11:25 73.6 °F /  23.1 °C 60.2 °F /  15.7 °C 30.26 in /  1024.6 hPa ENE 2.0 mph /  3.2 km/h 9.2 mph /  14.8 km/h 63 % 0.00 in /  0 mm
11:30 74.1 °F /  23.4 °C 61.1 °F /  16.2 °C 30.27 in /  1024.9 hPa ENE 1.6 mph /  2.6 km/h 3.5 mph /  5.6 km/h 64 % 0.00 in /  0 mm
11:35 74.2 °F /  23.4 °C 60.8 °F /  16 °C 30.26 in /  1024.6 hPa ENE 1.4 mph /  2.3 km/h 3.5 mph /  5.6 km/h 63 % 0.00 in /  0 mm
11:40 74.0 °F /  23.3 °C 59.2 °F /  15.1 °C 30.26 in /  1024.6 hPa ENE 4.5 mph /  7.2 km/h 10.4 mph /  16.7 km/h 60 % 0.00 in /  0 mm
11:45 74.0 °F /  23.3 °C 59.2 °F /  15.1 °C 30.25 in /  1024.3 hPa NE 1.5 mph /  2.4 km/h 3.5 mph /  5.6 km/h 60 % 0.00 in /  0 mm
11:50 73.9 °F /  23.3 °C 59.6 °F /  15.3 °C 30.25 in /  1024.3 hPa ENE 4.2 mph /  6.8 km/h 8.1 mph /  13 km/h 61 % 0.00 in /  0 mm
11:55 73.6 °F /  23.1 °C 58.9 °F /  14.9 °C 30.25 in /  1024.3 hPa ENE 2.3 mph /  3.7 km/h 4.0 mph /  6.4 km/h 60 % 0.00 in /  0 mm
12:00 73.5 °F /  23.1 °C 59.7 °F /  15.4 °C 30.25 in /  1024.3 hPa ENE 1.6 mph /  2.6 km/h 3.5 mph /  5.6 km/h 62 % 0.00 in /  0 mm
12:05 73.8 °F /  23.2 °C 60.0 °F /  15.6 °C 30.25 in /  1024.3 hPa ENE 1.5 mph /  2.4 km/h 4.0 mph /  6.4 km/h 62 % 0.00 in /  0 mm
12:10 74.2 °F /  23.4 °C 58.5 °F /  14.7 °C 30.25 in /  1024.3 hPa ENE 3.3 mph /  5.3 km/h 8.1 mph /  13 km/h 58 % 0.00 in /  0 mm
12:15 74.6 °F /  23.7 °C 57.9 °F /  14.4 °C 30.25 in /  1024.3 hPa ENE 2.7 mph /  4.3 km/h 4.6 mph /  7.4 km/h 56 % 0.00 in /  0 mm
12:20 74.9 °F /  23.8 °C 58.6 °F /  14.8 °C 30.25 in /  1024.3 hPa ENE 2.2 mph /  3.5 km/h 5.0 mph /  8 km/h 57 % 0.00 in /  0 mm
12:25 75.5 °F /  24.2 °C 58.2 °F /  14.6 °C 30.25 in /  1024.3 hPa ENE 3.5 mph /  5.6 km/h 7.0 mph /  11.3 km/h 55 % 0.00 in /  0 mm
12:30 76.0 °F /  24.4 °C 58.7 °F /  14.8 °C 30.25 in /  1024.3 hPa ENE 2.7 mph /  4.3 km/h 3.5 mph /  5.6 km/h 55 % 0.00 in /  0 mm
12:35 76.7 °F /  24.8 °C 58.3 °F /  14.6 °C 30.25 in /  1024.3 hPa ENE 3.8 mph /  6.1 km/h 5.8 mph /  9.3 km/h 53 % 0.00 in /  0 mm
12:40 76.9 °F /  24.9 °C 57.4 °F /  14.1 °C 30.25 in /  1024.3 hPa NE 4.2 mph /  6.8 km/h 6.0 mph /  9.7 km/h 51 % 0.00 in /  0 mm
12:45 76.9 °F /  24.9 °C 57.9 °F /  14.4 °C 30.25 in /  1024.3 hPa ENE 2.4 mph /  3.9 km/h 5.8 mph /  9.3 km/h 52 % 0.00 in /  0 mm
12:50 76.6 °F /  24.8 °C 58.2 °F /  14.6 °C 30.24 in /  1023.9 hPa ENE 4.7 mph /  7.6 km/h 6.9 mph /  11.1 km/h 53 % 0.00 in /  0 mm
12:55 76.6 °F /  24.8 °C 58.7 °F /  14.8 °C 30.24 in /  1023.9 hPa ENE 2.4 mph /  3.9 km/h 3.5 mph /  5.6 km/h 54 % 0.00 in /  0 mm
13:00 76.8 °F /  24.9 °C 58.9 °F /  14.9 °C 30.24 in /  1023.9 hPa NE 2.6 mph /  4.2 km/h 4.6 mph /  7.4 km/h 54 % 0.00 in /  0 mm
13:05 77.1 °F /  25.1 °C 59.2 °F /  15.1 °C 30.24 in /  1023.9 hPa ENE 2.7 mph /  4.3 km/h 9.2 mph /  14.8 km/h 54 % 0.00 in /  0 mm
13:10 77.4 °F /  25.2 °C 57.3 °F /  14.1 °C 30.24 in /  1023.9 hPa ENE 5.7 mph /  9.2 km/h 9.2 mph /  14.8 km/h 50 % 0.00 in /  0 mm
13:15 77.1 °F /  25.1 °C 57.6 °F /  14.2 °C 30.24 in /  1023.9 hPa East 3.2 mph /  5.1 km/h 5.8 mph /  9.3 km/h 51 % 0.00 in /  0 mm
13:20 77.0 °F /  25 °C 59.1 °F /  15.1 °C 30.24 in /  1023.9 hPa ENE 2.5 mph /  4 km/h 8.1 mph /  13 km/h 54 % 0.00 in /  0 mm
13:25 77.1 °F /  25.1 °C 58.1 °F /  14.5 °C 30.24 in /  1023.9 hPa ENE 2.9 mph /  4.7 km/h 5.8 mph /  9.3 km/h 52 % 0.00 in /  0 mm
13:30 77.0 °F /  25 °C 59.1 °F /  15.1 °C 30.24 in /  1023.9 hPa ENE 1.9 mph /  3.1 km/h 3.5 mph /  5.6 km/h 54 % 0.00 in /  0 mm
13:35 76.9 °F /  24.9 °C 57.9 °F /  14.4 °C 30.24 in /  1023.9 hPa ENE 4.5 mph /  7.2 km/h 9.2 mph /  14.8 km/h 52 % 0.00 in /  0 mm
13:40 76.6 °F /  24.8 °C 57.7 °F /  14.3 °C 30.24 in /  1023.9 hPa ENE 2.3 mph /  3.7 km/h 5.8 mph /  9.3 km/h 52 % 0.00 in /  0 mm
13:45 76.7 °F /  24.8 °C 57.7 °F /  14.3 °C 30.24 in /  1023.9 hPa ENE 3.0 mph /  4.8 km/h 6.9 mph /  11.1 km/h 52 % 0.00 in /  0 mm
13:50 76.6 °F /  24.8 °C 56.0 °F /  13.3 °C 30.24 in /  1023.9 hPa East 3.4 mph /  5.5 km/h 7.0 mph /  11.3 km/h 49 % 0.00 in /  0 mm
13:56 76.6 °F /  24.8 °C 56.6 °F /  13.7 °C 30.24 in /  1023.9 hPa ENE 2.0 mph /  3.2 km/h 7.0 mph /  11.3 km/h 50 % 0.00 in /  0 mm
14:01 76.6 °F /  24.8 °C 57.7 °F /  14.3 °C 30.24 in /  1023.9 hPa ENE 2.4 mph /  3.9 km/h 8.1 mph /  13 km/h 52 % 0.00 in /  0 mm
14:06 76.4 °F /  24.7 °C 57.5 °F /  14.2 °C 30.24 in /  1023.9 hPa East 3.2 mph /  5.1 km/h 3.5 mph /  5.6 km/h 52 % 0.00 in /  0 mm
14:11 76.2 °F /  24.6 °C 58.4 °F /  14.7 °C 30.24 in /  1023.9 hPa ENE 2.0 mph /  3.2 km/h 6.0 mph /  9.7 km/h 54 % 0.00 in /  0 mm
14:16 76.2 °F /  24.6 °C 56.7 °F /  13.7 °C 30.24 in /  1023.9 hPa ENE 3.0 mph /  4.8 km/h 8.0 mph /  12.9 km/h 51 % 0.00 in /  0 mm
14:21 76.3 °F /  24.6 °C 56.8 °F /  13.8 °C 30.24 in /  1023.9 hPa ENE 5.0 mph /  8 km/h 7.0 mph /  11.3 km/h 51 % 0.00 in /  0 mm
14:25 76.4 °F /  24.7 °C 56.4 °F /  13.6 °C 30.24 in /  1023.9 hPa ENE 2.1 mph /  3.4 km/h 4.6 mph /  7.4 km/h 50 % 0.00 in /  0 mm
14:30 76.5 °F /  24.7 °C 56.5 °F /  13.6 °C 30.24 in /  1023.9 hPa East 2.4 mph /  3.9 km/h 3.5 mph /  5.6 km/h 50 % 0.00 in /  0 mm
14:36 76.7 °F /  24.8 °C 55.0 °F /  12.8 °C 30.23 in /  1023.6 hPa ENE 2.0 mph /  3.2 km/h 6.0 mph /  9.7 km/h 47 % 0.00 in /  0 mm
14:41 76.5 °F /  24.7 °C 54.8 °F /  12.7 °C 30.24 in /  1023.9 hPa ENE 3.0 mph /  4.8 km/h 6.0 mph /  9.7 km/h 47 % 0.00 in /  0 mm
14:46 76.5 °F /  24.7 °C 53.6 °F /  12 °C 30.24 in /  1023.9 hPa ENE 2.0 mph /  3.2 km/h 5.0 mph /  8 km/h 45 % 0.00 in /  0 mm
14:51 76.3 °F /  24.6 °C 54.6 °F /  12.6 °C 30.23 in /  1023.6 hPa ENE 2.0 mph /  3.2 km/h 7.0 mph /  11.3 km/h 47 % 0.00 in /  0 mm
14:56 76.1 °F /  24.5 °C 54.4 °F /  12.4 °C 30.23 in /  1023.6 hPa ENE 2.0 mph /  3.2 km/h 10.0 mph /  16.1 km/h 47 % 0.00 in /  0 mm
15:01 76.1 °F /  24.5 °C 54.4 °F /  12.4 °C 30.23 in /  1023.6 hPa East 2.0 mph /  3.2 km/h 3.5 mph /  5.6 km/h 47 % 0.00 in /  0 mm
15:06 76.2 °F /  24.6 °C 53.9 °F /  12.2 °C 30.23 in /  1023.6 hPa ENE 1.7 mph /  2.7 km/h 3.5 mph /  5.6 km/h 46 % 0.00 in /  0 mm
15:11 76.2 °F /  24.6 °C 54.5 °F /  12.5 °C 30.23 in /  1023.6 hPa ENE 1.7 mph /  2.7 km/h 3.5 mph /  5.6 km/h 47 % 0.00 in /  0 mm
15:16 76.1 °F /  24.5 °C 54.4 °F /  12.4 °C 30.23 in /  1023.6 hPa East 2.2 mph /  3.5 km/h 4.6 mph /  7.4 km/h 47 % 0.00 in /  0 mm
15:21 76.0 °F /  24.4 °C 52.5 °F /  11.4 °C 30.22 in /  1023.2 hPa East 2.1 mph /  3.4 km/h 3.5 mph /  5.6 km/h 44 % 0.00 in /  0 mm
15:26 75.8 °F /  24.3 °C 52.9 °F /  11.6 °C 30.22 in /  1023.2 hPa ESE 1.8 mph /  2.9 km/h 3.5 mph /  5.6 km/h 45 % 0.00 in /  0 mm
15:31 75.8 °F /  24.3 °C 52.9 °F /  11.6 °C 30.22 in /  1023.2 hPa East 1.7 mph /  2.7 km/h 3.5 mph /  5.6 km/h 45 % 0.00 in /  0 mm
15:36 75.7 °F /  24.3 °C 53.4 °F /  11.9 °C 30.22 in /  1023.2 hPa East 2.1 mph /  3.4 km/h 4.6 mph /  7.4 km/h 46 % 0.00 in /  0 mm
15:41 75.5 °F /  24.2 °C 53.3 °F /  11.8 °C 30.21 in /  1022.9 hPa East 1.5 mph /  2.4 km/h 2.3 mph /  3.7 km/h 46 % 0.00 in /  0 mm
15:46 75.4 °F /  24.1 °C 52.6 °F /  11.4 °C 30.21 in /  1022.9 hPa East 1.8 mph /  2.9 km/h 3.5 mph /  5.6 km/h 45 % 0.00 in /  0 mm
15:51 75.4 °F /  24.1 °C 53.2 °F /  11.8 °C 30.21 in /  1022.9 hPa East 2.1 mph /  3.4 km/h 3.5 mph /  5.6 km/h 46 % 0.00 in /  0 mm
15:56 75.3 °F /  24.1 °C 52.5 °F /  11.4 °C 30.21 in /  1022.9 hPa East 1.4 mph /  2.3 km/h 3.5 mph /  5.6 km/h 45 % 0.00 in /  0 mm
16:01 75.3 °F /  24.1 °C 51.3 °F /  10.7 °C 30.21 in /  1022.9 hPa East 1.2 mph /  1.9 km/h 5.8 mph /  9.3 km/h 43 % 0.00 in /  0 mm
16:06 75.4 °F /  24.1 °C 53.2 °F /  11.8 °C 30.21 in /  1022.9 hPa East 1.3 mph /  2.1 km/h 3.0 mph /  4.8 km/h 46 % 0.00 in /  0 mm
16:11 75.3 °F /  24.1 °C 51.3 °F /  10.7 °C 30.22 in /  1023.2 hPa ESE 1.9 mph /  3.1 km/h 3.5 mph /  5.6 km/h 43 % 0.00 in /  0 mm
16:16 75.3 °F /  24.1 °C 51.3 °F /  10.7 °C 30.21 in /  1022.9 hPa ESE 1.4 mph /  2.3 km/h 2.3 mph /  3.7 km/h 43 % 0.00 in /  0 mm
16:21 75.3 °F /  24.1 °C 52.5 °F /  11.4 °C 30.21 in /  1022.9 hPa ESE 2.1 mph /  3.4 km/h 5.8 mph /  9.3 km/h 45 % 0.00 in /  0 mm
16:26 75.3 °F /  24.1 °C 51.9 °F /  11.1 °C 30.22 in /  1023.2 hPa East 3.0 mph /  4.8 km/h 8.1 mph /  13 km/h 44 % 0.00 in /  0 mm
16:31 75.3 °F /  24.1 °C 53.1 °F /  11.7 °C 30.22 in /  1023.2 hPa East 2.3 mph /  3.7 km/h 3.5 mph /  5.6 km/h 46 % 0.00 in /  0 mm
16:36 75.3 °F /  24.1 °C 53.7 °F /  12.1 °C 30.21 in /  1022.9 hPa ESE 1.2 mph /  1.9 km/h 2.3 mph /  3.7 km/h 47 % 0.00 in /  0 mm
16:41 75.4 °F /  24.1 °C 53.8 °F /  12.1 °C 30.21 in /  1022.9 hPa SE 2.8 mph /  4.5 km/h 4.0 mph /  6.4 km/h 47 % 0.00 in /  0 mm
16:46 75.4 °F /  24.1 °C 53.8 °F /  12.1 °C 30.22 in /  1023.2 hPa SE 1.0 mph /  1.6 km/h 2.3 mph /  3.7 km/h 47 % 0.00 in /  0 mm
16:51 75.3 °F /  24.1 °C 54.3 °F /  12.4 °C 30.22 in /  1023.2 hPa ESE 0.2 mph /  0.3 km/h 2.3 mph /  3.7 km/h 48 % 0.00 in /  0 mm
16:56 75.2 °F /  24 °C 55.3 °F /  12.9 °C 30.22 in /  1023.2 hPa ESE 0.6 mph /  1 km/h 1.2 mph /  1.9 km/h 50 % 0.00 in /  0 mm
16:57 75.2 °F /  24 °C 55.3 °F /  12.9 °C 30.21 in /  1022.9 hPa ESE 0.5 mph /  0.8 km/h 2.3 mph /  3.7 km/h 50 % 0.00 in /  0 mm
17:02 75.1 °F /  23.9 °C 54.1 °F /  12.3 °C 30.22 in /  1023.2 hPa SE 0.6 mph /  1 km/h 3.5 mph /  5.6 km/h 48 % 0.00 in /  0 mm
17:07 74.9 °F /  23.8 °C 54.4 °F /  12.4 °C 30.21 in /  1022.9 hPa SE 1.3 mph /  2.1 km/h 3.5 mph /  5.6 km/h 49 % 0.00 in /  0 mm
17:12 74.6 °F /  23.7 °C 53.6 °F /  12 °C 30.21 in /  1022.9 hPa SE 2.8 mph /  4.5 km/h 3.5 mph /  5.6 km/h 48 % 0.00 in /  0 mm
17:17 74.3 °F /  23.5 °C 54.5 °F /  12.5 °C 30.21 in /  1022.9 hPa ESE 0.3 mph /  0.5 km/h 2.3 mph /  3.7 km/h 50 % 0.00 in /  0 mm
17:22 74.2 °F /  23.4 °C 54.9 °F /  12.7 °C 30.21 in /  1022.9 hPa ESE 0.5 mph /  0.8 km/h 2.3 mph /  3.7 km/h 51 % 0.00 in /  0 mm
17:27 74.0 °F /  23.3 °C 55.3 °F /  12.9 °C 30.21 in /  1022.9 hPa ESE 0.3 mph /  0.5 km/h 2.3 mph /  3.7 km/h 52 % 0.00 in /  0 mm
17:32 73.8 °F /  23.2 °C 55.1 °F /  12.8 °C 30.21 in /  1022.9 hPa ESE 0.5 mph /  0.8 km/h 1.2 mph /  1.9 km/h 52 % 0.00 in /  0 mm
17:37 73.7 °F /  23.2 °C 55.5 °F /  13.1 °C 30.21 in /  1022.9 hPa ESE 0.4 mph /  0.6 km/h 1.2 mph /  1.9 km/h 53 % 0.00 in /  0 mm
17:42 73.6 °F /  23.1 °C 55.4 °F /  13 °C 30.21 in /  1022.9 hPa ESE 0.8 mph /  1.3 km/h 1.2 mph /  1.9 km/h 53 % 0.00 in /  0 mm
17:47 73.5 °F /  23.1 °C 55.3 °F /  12.9 °C 30.21 in /  1022.9 hPa SE 0.6 mph /  1 km/h 3.5 mph /  5.6 km/h 53 % 0.00 in /  0 mm
17:48 73.6 °F /  23.1 °C 55.4 °F /  13 °C 30.22 in /  1023.2 hPa SE 0.4 mph /  0.6 km/h 3.5 mph /  5.6 km/h 53 % 0.00 in /  0 mm
17:53 73.5 °F /  23.1 °C 55.8 °F /  13.2 °C 30.22 in /  1023.2 hPa SE 2.4 mph /  3.9 km/h 4.6 mph /  7.4 km/h 54 % 0.00 in /  0 mm
17:58 73.4 °F /  23 °C 56.7 °F /  13.7 °C 30.22 in /  1023.2 hPa SE 0.7 mph /  1.1 km/h 2.3 mph /  3.7 km/h 56 % 0.00 in /  0 mm
18:03 73.2 °F /  22.9 °C 56.6 °F /  13.7 °C 30.22 in /  1023.2 hPa SE 0.1 mph /  0.2 km/h 1.2 mph /  1.9 km/h 56 % 0.00 in /  0 mm
18:08 73.1 °F /  22.8 °C 57.0 °F /  13.9 °C 30.22 in /  1023.2 hPa SE 0.5 mph /  0.8 km/h 2.3 mph /  3.7 km/h 57 % 0.00 in /  0 mm
18:13 73.0 °F /  22.8 °C 56.9 °F /  13.8 °C 30.22 in /  1023.2 hPa SE 0.3 mph /  0.5 km/h 2.3 mph /  3.7 km/h 57 % 0.00 in /  0 mm
18:18 72.8 °F /  22.7 °C 57.2 °F /  14 °C 30.22 in /  1023.2 hPa SE 0.8 mph /  1.3 km/h 2.3 mph /  3.7 km/h 58 % 0.00 in /  0 mm
18:23 72.6 °F /  22.6 °C 56.5 °F /  13.6 °C 30.22 in /  1023.2 hPa SE 0.6 mph /  1 km/h 2.3 mph /  3.7 km/h 57 % 0.00 in /  0 mm
18:28 72.5 °F /  22.5 °C 56.9 °F /  13.8 °C 30.22 in /  1023.2 hPa ESE 0.4 mph /  0.6 km/h 2.3 mph /  3.7 km/h 58 % 0.00 in /  0 mm
18:33 72.4 °F /  22.4 °C 57.3 °F /  14.1 °C 30.22 in /  1023.2 hPa ESE 0.1 mph /  0.2 km/h 3.5 mph /  5.6 km/h 59 % 0.00 in /  0 mm
18:38 72.1 °F /  22.3 °C 56.5 °F /  13.6 °C 30.22 in /  1023.2 hPa SE 1.7 mph /  2.7 km/h 3.5 mph /  5.6 km/h 58 % 0.00 in /  0 mm
18:43 71.9 °F /  22.2 °C 56.8 °F /  13.8 °C 30.22 in /  1023.2 hPa SE 0.4 mph /  0.6 km/h 2.3 mph /  3.7 km/h 59 % 0.00 in /  0 mm
18:48 71.7 °F /  22.1 °C 56.6 °F /  13.7 °C 30.22 in /  1023.2 hPa SE 1.1 mph /  1.8 km/h 2.3 mph /  3.7 km/h 59 % 0.00 in /  0 mm
18:53 71.5 °F /  21.9 °C 56.4 °F /  13.6 °C 30.22 in /  1023.2 hPa SE 0.2 mph /  0.3 km/h 1.2 mph /  1.9 km/h 59 % 0.00 in /  0 mm
18:58 71.3 °F /  21.8 °C 56.7 °F /  13.7 °C 30.23 in /  1023.6 hPa Calm     60 % 0.00 in /  0 mm
19:03 71.2 °F /  21.8 °C 56.6 °F /  13.7 °C 30.23 in /  1023.6 hPa Calm     60 % 0.00 in /  0 mm
19:08 70.9 °F /  21.6 °C 56.8 °F /  13.8 °C 30.23 in /  1023.6 hPa SE 0.4 mph /  0.6 km/h 1.0 mph /  1.6 km/h 61 % 0.00 in /  0 mm
19:13 70.7 °F /  21.5 °C 56.6 °F /  13.7 °C 30.23 in /  1023.6 hPa SE 1.4 mph /  2.3 km/h 2.0 mph /  3.2 km/h 61 % 0.00 in /  0 mm
19:18 70.4 °F /  21.3 °C 56.3 °F /  13.5 °C 30.23 in /  1023.6 hPa SE 1.5 mph /  2.4 km/h 2.3 mph /  3.7 km/h 61 % 0.00 in /  0 mm
19:23 70.1 °F /  21.2 °C 56.0 °F /  13.3 °C 30.23 in /  1023.6 hPa SE 0.3 mph /  0.5 km/h 1.2 mph /  1.9 km/h 61 % 0.00 in /  0 mm
19:28 69.9 °F /  21.1 °C 55.8 °F /  13.2 °C 30.23 in /  1023.6 hPa SE 0.3 mph /  0.5 km/h 1.2 mph /  1.9 km/h 61 % 0.00 in /  0 mm
19:33 69.6 °F /  20.9 °C 56.0 °F /  13.3 °C 30.23 in /  1023.6 hPa SE 0.6 mph /  1 km/h 1.2 mph /  1.9 km/h 62 % 0.00 in /  0 mm
19:38 69.4 °F /  20.8 °C 56.3 °F /  13.5 °C 30.23 in /  1023.6 hPa SE 1.3 mph /  2.1 km/h 2.3 mph /  3.7 km/h 63 % 0.00 in /  0 mm
19:43 69.1 °F /  20.6 °C 56.4 °F /  13.6 °C 30.23 in /  1023.6 hPa SE 1.5 mph /  2.4 km/h 3.5 mph /  5.6 km/h 64 % 0.00 in /  0 mm
19:48 68.8 °F /  20.4 °C 56.6 °F /  13.7 °C 30.23 in /  1023.6 hPa SE 0.6 mph /  1 km/h 2.3 mph /  3.7 km/h 65 % 0.00 in /  0 mm
19:54 68.4 °F /  20.2 °C 56.2 °F /  13.4 °C 30.23 in /  1023.6 hPa SE 0.7 mph /  1.1 km/h 2.3 mph /  3.7 km/h 65 % 0.00 in /  0 mm
19:59 68.2 °F /  20.1 °C 56.4 °F /  13.6 °C 30.23 in /  1023.6 hPa SE 1.3 mph /  2.1 km/h 3.5 mph /  5.6 km/h 66 % 0.00 in /  0 mm
20:04 67.9 °F /  19.9 °C 56.5 °F /  13.6 °C 30.23 in /  1023.6 hPa SE 0.6 mph /  1 km/h 3.5 mph /  5.6 km/h 67 % 0.00 in /  0 mm
20:09 67.6 °F /  19.8 °C 56.7 °F /  13.7 °C 30.23 in /  1023.6 hPa SE 1.0 mph /  1.6 km/h 2.3 mph /  3.7 km/h 68 % 0.00 in /  0 mm
20:14 67.3 °F /  19.6 °C 56.4 °F /  13.6 °C 30.23 in /  1023.6 hPa SE 0.4 mph /  0.6 km/h 2.3 mph /  3.7 km/h 68 % 0.00 in /  0 mm
20:19 67.1 °F /  19.5 °C 56.2 °F /  13.4 °C 30.23 in /  1023.6 hPa Calm   1.2 mph /  1.9 km/h 68 % 0.00 in /  0 mm
20:24 66.8 °F /  19.3 °C 55.9 °F /  13.3 °C 30.23 in /  1023.6 hPa SE 0.7 mph /  1.1 km/h 1.2 mph /  1.9 km/h 68 % 0.00 in /  0 mm
20:29 66.6 °F /  19.2 °C 56.1 °F /  13.4 °C 30.23 in /  1023.6 hPa Calm   1.2 mph /  1.9 km/h 69 % 0.00 in /  0 mm
20:34 66.4 °F /  19.1 °C 56.3 °F /  13.5 °C 30.23 in /  1023.6 hPa Calm     70 % 0.00 in /  0 mm
20:39 66.1 °F /  18.9 °C 56.0 °F /  13.3 °C 30.23 in /  1023.6 hPa Calm     70 % 0.00 in /  0 mm
20:44 65.9 °F /  18.8 °C 56.2 °F /  13.4 °C 30.23 in /  1023.6 hPa Calm     71 % 0.00 in /  0 mm
20:49 65.7 °F /  18.7 °C 56.0 °F /  13.3 °C 30.23 in /  1023.6 hPa Calm     71 % 0.00 in /  0 mm
20:54 65.4 °F /  18.6 °C 56.1 °F /  13.4 °C 30.23 in /  1023.6 hPa Calm     72 % 0.00 in /  0 mm
20:59 65.2 °F /  18.4 °C 56.3 °F /  13.5 °C 30.23 in /  1023.6 hPa Calm   1.2 mph /  1.9 km/h 73 % 0.00 in /  0 mm
21:04 65.0 °F /  18.3 °C 56.5 °F /  13.6 °C 30.23 in /  1023.6 hPa Calm     74 % 0.00 in /  0 mm
21:09 64.8 °F /  18.2 °C 55.9 °F /  13.3 °C 30.23 in /  1023.6 hPa Calm     73 % 0.00 in /  0 mm
21:14 64.7 °F /  18.2 °C 56.2 °F /  13.4 °C 30.23 in /  1023.6 hPa Calm     74 % 0.00 in /  0 mm
21:19 64.5 °F /  18.1 °C 56.0 °F /  13.3 °C 30.23 in /  1023.6 hPa Calm     74 % 0.00 in /  0 mm
21:24 64.4 °F /  18 °C 55.9 °F /  13.3 °C 30.24 in /  1023.9 hPa Calm   1.0 mph /  1.6 km/h 74 % 0.00 in /  0 mm
21:29 64.2 °F /  17.9 °C 56.1 °F /  13.4 °C 30.24 in /  1023.9 hPa SE 0.1 mph /  0.2 km/h 1.2 mph /  1.9 km/h 75 % 0.00 in /  0 mm
21:34 64.1 °F /  17.8 °C 56.0 °F /  13.3 °C 30.24 in /  1023.9 hPa SE 0.3 mph /  0.5 km/h 1.2 mph /  1.9 km/h 75 % 0.00 in /  0 mm
21:40 63.9 °F /  17.7 °C 56.2 °F /  13.4 °C 30.24 in /  1023.9 hPa Calm     76 % 0.00 in /  0 mm
21:45 63.8 °F /  17.7 °C 56.1 °F /  13.4 °C 30.23 in /  1023.6 hPa Calm   1.2 mph /  1.9 km/h 76 % 0.00 in /  0 mm
21:50 63.7 °F /  17.6 °C 56.0 °F /  13.3 °C 30.23 in /  1023.6 hPa Calm     76 % 0.00 in /  0 mm
21:55 63.5 °F /  17.5 °C 56.5 °F /  13.6 °C 30.23 in /  1023.6 hPa Calm     78 % 0.00 in /  0 mm
22:00 63.4 °F /  17.4 °C 56.8 °F /  13.8 °C 30.22 in /  1023.2 hPa Calm   1.2 mph /  1.9 km/h 79 % 0.00 in /  0 mm
22:05 63.2 °F /  17.3 °C 56.6 °F /  13.7 °C 30.22 in /  1023.2 hPa SE 0.1 mph /  0.2 km/h 1.2 mph /  1.9 km/h 79 % 0.00 in /  0 mm
22:10 63.1 °F /  17.3 °C 56.8 °F /  13.8 °C 30.22 in /  1023.2 hPa Calm   1.2 mph /  1.9 km/h 80 % 0.00 in /  0 mm
22:15 63.1 °F /  17.3 °C 56.8 °F /  13.8 °C 30.22 in /  1023.2 hPa SE 0.3 mph /  0.5 km/h 1.2 mph /  1.9 km/h 80 % 0.00 in /  0 mm
22:20 63.0 °F /  17.2 °C 57.1 °F /  13.9 °C 30.22 in /  1023.2 hPa SE 0.1 mph /  0.2 km/h 1.2 mph /  1.9 km/h 81 % 0.00 in /  0 mm
22:25 62.9 °F /  17.2 °C 57.0 °F /  13.9 °C 30.22 in /  1023.2 hPa SE 0.1 mph /  0.2 km/h 1.2 mph /  1.9 km/h 81 % 0.00 in /  0 mm
22:30 62.9 °F /  17.2 °C 57.0 °F /  13.9 °C 30.22 in /  1023.2 hPa SE 0.1 mph /  0.2 km/h 2.3 mph /  3.7 km/h 81 % 0.00 in /  0 mm
22:35 62.9 °F /  17.2 °C 57.0 °F /  13.9 °C 30.22 in /  1023.2 hPa Calm   1.2 mph /  1.9 km/h 81 % 0.00 in /  0 mm
22:40 63.0 °F /  17.2 °C 57.4 °F /  14.1 °C 30.22 in /  1023.2 hPa SE 0.3 mph /  0.5 km/h 1.2 mph /  1.9 km/h 82 % 0.00 in /  0 mm
22:45 63.0 °F /  17.2 °C 57.4 °F /  14.1 °C 30.22 in /  1023.2 hPa Calm   1.2 mph /  1.9 km/h 82 % 0.00 in /  0 mm
22:50 63.0 °F /  17.2 °C 57.4 °F /  14.1 °C 30.22 in /  1023.2 hPa SE 0.4 mph /  0.6 km/h 1.2 mph /  1.9 km/h 82 % 0.00 in /  0 mm
22:55 63.0 °F /  17.2 °C 57.4 °F /  14.1 °C 30.22 in /  1023.2 hPa SE 0.2 mph /  0.3 km/h 1.2 mph /  1.9 km/h 82 % 0.00 in /  0 mm
23:01 63.0 °F /  17.2 °C 57.4 °F /  14.1 °C 30.22 in /  1023.2 hPa Calm   1.2 mph /  1.9 km/h 82 % 0.00 in /  0 mm
23:05 63.0 °F /  17.2 °C 57.4 °F /  14.1 °C 30.22 in /  1023.2 hPa Calm     82 % 0.00 in /  0 mm
23:11 63.0 °F /  17.2 °C 57.4 °F /  14.1 °C 30.22 in /  1023.2 hPa Calm   1.2 mph /  1.9 km/h 82 % 0.00 in /  0 mm
23:17 63.0 °F /  17.2 °C 57.4 °F /  14.1 °C 30.22 in /  1023.2 hPa SE 0.1 mph /  0.2 km/h 1.2 mph /  1.9 km/h 82 % 0.00 in /  0 mm
23:22 63.0 °F /  17.2 °C 57.4 °F /  14.1 °C 30.22 in /  1023.2 hPa Calm   1.2 mph /  1.9 km/h 82 % 0.00 in /  0 mm
23:25 63.0 °F /  17.2 °C 57.8 °F /  14.3 °C 30.22 in /  1023.2 hPa Calm   1.2 mph /  1.9 km/h 83 % 0.00 in /  0 mm
23:26 63.0 °F /  17.2 °C 57.8 °F /  14.3 °C 30.22 in /  1023.2 hPa SE 0.1 mph /  0.2 km/h 1.2 mph /  1.9 km/h 83 % 0.00 in /  0 mm
23:29 62.9 °F /  17.2 °C 57.7 °F /  14.3 °C 30.22 in /  1023.2 hPa SE 0.1 mph /  0.2 km/h 1.2 mph /  1.9 km/h 83 % 0.00 in /  0 mm
23:31 62.9 °F /  17.2 °C 57.7 °F /  14.3 °C 30.22 in /  1023.2 hPa Calm     83 % 0.00 in /  0 mm
23:36 62.9 °F /  17.2 °C 57.7 °F /  14.3 °C 30.22 in /  1023.2 hPa Calm   1.2 mph /  1.9 km/h 83 % 0.00 in /  0 mm
23:41 62.9 °F /  17.2 °C 57.7 °F /  14.3 °C 30.22 in /  1023.2 hPa Calm     83 % 0.00 in /  0 mm
23:46 62.8 °F /  17.1 °C 57.6 °F /  14.2 °C 30.22 in /  1023.2 hPa SE 0.4 mph /  0.6 km/h 1.2 mph /  1.9 km/h 83 % 0.00 in /  0 mm
23:51 62.7 °F /  17.1 °C 57.5 °F /  14.2 °C 30.22 in /  1023.2 hPa SE 0.1 mph /  0.2 km/h 1.2 mph /  1.9 km/h 83 % 0.00 in /  0 mm
23:56 62.7 °F /  17.1 °C 57.5 °F /  14.2 °C 30.22 in /  1023.2 hPa SE 0.3 mph /  0.5 km/h 1.2 mph /  1.9 km/h 83 % 0.00 in /  0 mm
Crab Meadow Weather
Compliments of Weather Underground - 3 mb

Script developed by  Jim McMurry - jmcmurry@mwt.net Adapted for the template by  Wim van der Kuil - Leuven-Template.eu

Recycling: Out of every $10 spent buying things, $1 (10%) goes for packaging that is thrown away. Packaging represents about 65% of household trash.